createdAt,value
2018-12-14T00:00:10.269Z,846.52
2018-12-14T00:01:10.293Z,846.50
2018-12-14T00:02:10.266Z,846.44
2018-12-14T00:03:10.248Z,846.41
2018-12-14T00:04:10.230Z,846.37
2018-12-14T00:05:10.220Z,846.36
2018-12-14T00:06:10.237Z,846.43
2018-12-14T00:07:10.205Z,846.41
2018-12-14T00:08:10.227Z,846.39
2018-12-14T00:09:10.185Z,846.38
2018-12-14T00:10:10.169Z,846.35
2018-12-14T00:11:10.157Z,846.28
2018-12-14T00:12:10.156Z,846.31
2018-12-14T00:13:10.183Z,846.36
2018-12-14T00:14:10.127Z,846.34
2018-12-14T00:15:10.112Z,846.31
2018-12-14T00:16:10.098Z,846.34
2018-12-14T00:17:10.102Z,846.33
2018-12-14T00:18:10.117Z,846.30
2018-12-14T00:19:10.075Z,846.34
2018-12-14T00:20:10.067Z,846.30
2018-12-14T00:21:10.044Z,846.35
2018-12-14T00:22:10.043Z,846.35
2018-12-14T00:23:10.088Z,846.33
2018-12-14T00:24:10.024Z,846.35
2018-12-14T00:25:10.017Z,846.35
2018-12-14T00:26:10.006Z,846.37
2018-12-14T00:27:09.990Z,846.38
2018-12-14T00:28:10.020Z,846.40
2018-12-14T00:29:09.990Z,846.39
2018-12-14T00:30:09.963Z,846.39
2018-12-14T00:31:09.948Z,846.38
2018-12-14T00:32:09.946Z,846.39
2018-12-14T00:33:09.967Z,846.40
2018-12-14T00:34:09.920Z,846.32
2018-12-14T00:35:09.924Z,846.33
2018-12-14T00:36:09.898Z,846.39
2018-12-14T00:37:09.887Z,846.40
2018-12-14T00:38:09.913Z,846.40
2018-12-14T00:39:09.875Z,846.45
2018-12-14T00:40:09.900Z,846.39
2018-12-14T00:41:09.859Z,846.45
2018-12-14T00:42:09.834Z,846.39
2018-12-14T00:43:09.821Z,846.36
2018-12-14T00:44:09.820Z,846.44
2018-12-14T00:45:09.843Z,846.44
2018-12-14T00:46:09.834Z,846.42
2018-12-14T00:47:09.800Z,846.45
2018-12-14T00:48:09.774Z,846.44
2018-12-14T00:49:09.764Z,846.46
2018-12-14T00:50:09.756Z,846.46
2018-12-14T00:51:09.780Z,846.41
2018-12-14T00:52:09.747Z,846.44
2018-12-14T00:53:09.744Z,846.41
2018-12-14T00:54:09.712Z,846.38
2018-12-14T00:55:09.728Z,846.41
2018-12-14T00:56:09.729Z,846.39
2018-12-14T00:57:09.688Z,846.35
2018-12-14T00:58:09.673Z,846.36
2018-12-14T00:59:09.677Z,846.34
2018-12-14T01:00:09.651Z,846.36
2018-12-14T01:01:09.680Z,846.35
2018-12-14T01:02:09.643Z,846.41
2018-12-14T01:03:09.622Z,846.37
2018-12-14T01:04:09.607Z,846.39
2018-12-14T01:05:09.617Z,846.40
2018-12-14T01:06:09.637Z,846.40
2018-12-14T01:07:09.583Z,846.44
2018-12-14T01:08:09.567Z,846.36
2018-12-14T01:09:09.608Z,846.36
2018-12-14T01:10:09.545Z,846.43
2018-12-14T01:11:09.536Z,846.40
2018-12-14T01:12:09.530Z,846.41
2018-12-14T01:13:09.522Z,846.37
2018-12-14T01:14:09.548Z,846.39
2018-12-14T01:15:09.500Z,846.41
2018-12-14T01:16:09.487Z,846.37
2018-12-14T01:17:09.480Z,846.38
2018-12-14T01:18:09.478Z,846.35
2018-12-14T01:19:09.516Z,846.38
2018-12-14T01:20:09.468Z,846.36
2018-12-14T01:21:09.439Z,846.36
2018-12-14T01:22:09.423Z,846.39
2018-12-14T01:23:09.435Z,846.41
2018-12-14T01:24:09.444Z,846.36
2018-12-14T01:25:09.394Z,846.38
2018-12-14T01:26:09.398Z,846.42
2018-12-14T01:27:09.369Z,846.39
2018-12-14T01:28:09.357Z,846.33
2018-12-14T01:29:09.391Z,846.35
2018-12-14T01:30:09.356Z,846.34
2018-12-14T01:31:09.340Z,846.37
2018-12-14T01:32:09.370Z,846.41
2018-12-14T01:33:09.307Z,846.39
2018-12-14T01:34:09.359Z,846.39
2018-12-14T01:35:09.287Z,846.37
2018-12-14T01:36:09.277Z,846.39
2018-12-14T01:37:09.275Z,846.37
2018-12-14T01:38:09.256Z,846.37
2018-12-14T01:39:09.284Z,846.38
2018-12-14T01:40:09.242Z,846.36
2018-12-14T01:41:09.268Z,846.40
2018-12-14T01:42:09.218Z,846.40
2018-12-14T01:43:09.221Z,846.38
2018-12-14T01:44:09.204Z,846.40
2018-12-14T01:45:09.189Z,846.36
2018-12-14T01:46:09.211Z,846.41
2018-12-14T01:47:09.172Z,846.39
2018-12-14T01:48:09.156Z,846.38
2018-12-14T01:49:09.164Z,846.43
2018-12-14T01:50:09.135Z,846.40
2018-12-14T01:51:09.157Z,846.43
2018-12-14T01:52:09.118Z,846.44
2018-12-14T01:53:09.102Z,846.42
2018-12-14T01:54:09.146Z,846.41
2018-12-14T01:55:09.098Z,846.43
2018-12-14T01:56:09.079Z,846.39
2018-12-14T01:57:09.063Z,846.38
2018-12-14T01:58:09.054Z,846.35
2018-12-14T01:59:09.097Z,846.35
2018-12-14T02:00:09.033Z,846.38
2018-12-14T02:01:09.031Z,846.35
2018-12-14T02:02:09.014Z,846.41
2018-12-14T02:03:09.002Z,846.37
2018-12-14T02:04:09.040Z,846.33
2018-12-14T02:05:09.035Z,846.36
2018-12-14T02:06:08.973Z,846.40
2018-12-14T02:07:08.963Z,846.37
2018-12-14T02:08:08.957Z,846.36
2018-12-14T02:09:08.940Z,846.37
2018-12-14T02:10:08.970Z,846.34
2018-12-14T02:11:08.933Z,846.37
2018-12-14T02:12:11.429Z,846.37
2018-12-14T02:13:08.907Z,846.36
2018-12-14T02:14:08.896Z,846.41
2018-12-14T02:15:08.921Z,846.40
2018-12-14T02:16:08.877Z,846.38
2018-12-14T02:17:08.878Z,846.38
2018-12-14T02:18:08.851Z,846.34
2018-12-14T02:19:08.843Z,846.37
2018-12-14T02:20:08.885Z,846.33
2018-12-14T02:21:08.851Z,846.32
2018-12-14T02:22:08.810Z,846.30
2018-12-14T02:23:08.820Z,846.32
2018-12-14T02:24:08.796Z,846.34
2018-12-14T02:25:08.827Z,846.32
2018-12-14T02:26:08.774Z,846.31
2018-12-14T02:27:08.764Z,846.31
2018-12-14T02:28:08.751Z,846.32
2018-12-14T02:29:08.752Z,846.29
2018-12-14T02:30:08.787Z,846.29
2018-12-14T02:31:08.742Z,846.27
2018-12-14T02:32:08.735Z,846.28
2018-12-14T02:33:08.704Z,846.23
2018-12-14T02:34:08.702Z,846.26
2018-12-14T02:35:08.722Z,846.25
2018-12-14T02:36:08.676Z,846.29
2018-12-14T02:37:08.718Z,846.28
2018-12-14T02:38:08.699Z,846.33
2018-12-14T02:39:08.659Z,846.30
2018-12-14T02:40:08.642Z,846.30
2018-12-14T02:41:08.628Z,846.30
2018-12-14T02:42:08.659Z,846.31
2018-12-14T02:43:08.613Z,846.31
2018-12-14T02:44:08.599Z,846.30
2018-12-14T02:45:08.606Z,846.26
2018-12-14T02:46:08.579Z,846.28
2018-12-14T02:47:08.613Z,846.23
2018-12-14T02:48:08.583Z,846.24
2018-12-14T02:49:08.570Z,846.24
2018-12-14T02:50:08.601Z,846.27
2018-12-14T02:51:08.531Z,846.27
2018-12-14T02:52:08.581Z,846.23
2018-12-14T02:53:08.504Z,846.26
2018-12-14T02:54:08.513Z,846.24
2018-12-14T02:55:08.520Z,846.27
2018-12-14T02:56:08.514Z,846.22
2018-12-14T02:57:08.514Z,846.25
2018-12-14T02:58:08.453Z,846.27
2018-12-14T02:59:08.448Z,846.25
2018-12-14T03:00:08.434Z,846.29
2018-12-14T03:01:08.416Z,846.25
2018-12-14T03:02:08.450Z,846.26
2018-12-14T03:03:08.426Z,846.25
2018-12-14T03:04:08.396Z,846.32
2018-12-14T03:05:08.390Z,846.28
2018-12-14T03:06:08.384Z,846.20
2018-12-14T03:07:08.416Z,846.24
2018-12-14T03:08:08.417Z,846.26
2018-12-14T03:09:08.350Z,846.25
2018-12-14T03:10:08.337Z,846.25
2018-12-14T03:11:08.329Z,846.23
2018-12-14T03:12:08.348Z,846.25
2018-12-14T03:13:08.301Z,846.20
2018-12-14T03:14:08.315Z,846.23
2018-12-14T03:15:08.306Z,846.25
2018-12-14T03:16:08.310Z,846.26
2018-12-14T03:17:08.297Z,846.18
2018-12-14T03:18:08.286Z,846.20
2018-12-14T03:19:08.253Z,846.20
2018-12-14T03:20:08.239Z,846.26
2018-12-14T03:21:08.252Z,846.26
2018-12-14T03:22:08.217Z,846.21
2018-12-14T03:23:08.254Z,846.26
2018-12-14T03:24:08.200Z,846.26
2018-12-14T03:25:36.659Z,846.22
2018-12-14T03:26:09.168Z,846.24
2018-12-14T03:27:08.159Z,846.20
2018-12-14T03:28:08.176Z,846.21
2018-12-14T03:29:08.137Z,846.21
2018-12-14T03:30:08.132Z,846.17
2018-12-14T03:31:08.117Z,846.19
2018-12-14T03:32:08.105Z,846.18
2018-12-14T03:33:08.136Z,846.28
2018-12-14T03:34:08.086Z,846.27
2018-12-14T03:35:08.075Z,846.24
2018-12-14T03:36:08.064Z,846.31
2018-12-14T03:37:08.055Z,846.24
2018-12-14T03:38:08.051Z,846.25
2018-12-14T03:39:08.041Z,846.25
2018-12-14T03:40:08.040Z,846.30
2018-12-14T03:41:08.024Z,846.24
2018-12-14T03:42:08.009Z,846.24
2018-12-14T03:43:07.996Z,846.25
2018-12-14T03:44:08.036Z,846.27
2018-12-14T03:45:07.985Z,846.26
2018-12-14T03:46:07.979Z,846.25
2018-12-14T03:47:07.948Z,846.27
2018-12-14T03:48:07.955Z,846.27
2018-12-14T03:49:07.968Z,846.32
2018-12-14T03:50:07.922Z,846.27
2018-12-14T03:51:07.925Z,846.28
2018-12-14T03:52:07.914Z,846.23
2018-12-14T03:53:07.901Z,846.24
2018-12-14T03:54:07.925Z,846.22
2018-12-14T03:55:07.870Z,846.18
2018-12-14T03:56:07.860Z,846.14
2018-12-14T03:57:07.853Z,846.16
2018-12-14T03:58:07.861Z,846.17
2018-12-14T03:59:07.875Z,846.20
2018-12-14T04:00:07.830Z,846.11
2018-12-14T04:01:07.847Z,846.13
2018-12-14T04:02:07.818Z,846.12
2018-12-14T04:03:07.805Z,846.14
2018-12-14T04:04:07.784Z,846.12
2018-12-14T04:05:07.780Z,846.10
2018-12-14T04:06:07.817Z,846.10
2018-12-14T04:07:07.771Z,846.09
2018-12-14T04:08:07.752Z,846.12
2018-12-14T04:09:07.733Z,846.11
2018-12-14T04:10:07.724Z,846.09
2018-12-14T04:11:07.745Z,846.08
2018-12-14T04:12:07.704Z,846.09
2018-12-14T04:13:07.700Z,846.16
2018-12-14T04:14:07.682Z,846.12
2018-12-14T04:15:07.679Z,846.16
2018-12-14T04:16:07.695Z,846.15
2018-12-14T04:17:07.668Z,846.14
2018-12-14T04:18:07.683Z,846.15
2018-12-14T04:19:07.627Z,846.13
2018-12-14T04:20:07.619Z,846.12
2018-12-14T04:21:07.619Z,846.10
2018-12-14T04:22:07.631Z,846.14
2018-12-14T04:23:07.622Z,846.13
2018-12-14T04:24:07.577Z,846.10
2018-12-14T04:25:07.590Z,846.11
2018-12-14T04:26:07.555Z,846.11
2018-12-14T04:27:07.549Z,846.15
2018-12-14T04:28:07.577Z,846.18
2018-12-14T04:29:07.551Z,846.19
2018-12-14T04:30:07.547Z,846.19
2018-12-14T04:31:07.531Z,846.12
2018-12-14T04:32:07.493Z,846.15
2018-12-14T04:33:07.538Z,846.18
2018-12-14T04:34:07.493Z,846.16
2018-12-14T04:35:07.480Z,846.16
2018-12-14T04:36:07.460Z,846.20
2018-12-14T04:37:07.446Z,846.20
2018-12-14T04:38:07.475Z,846.15
2018-12-14T04:39:07.431Z,846.17
2018-12-14T04:40:07.417Z,846.19
2018-12-14T04:41:07.406Z,846.14
2018-12-14T04:42:07.400Z,846.18
2018-12-14T04:43:07.418Z,846.16
2018-12-14T04:44:07.381Z,846.18
2018-12-14T04:45:07.367Z,846.16
2018-12-14T04:46:07.367Z,846.17
2018-12-14T04:47:07.339Z,846.18
2018-12-14T04:48:07.365Z,846.18
2018-12-14T04:49:07.368Z,846.22
2018-12-14T04:50:07.327Z,846.20
2018-12-14T04:51:07.301Z,846.24
2018-12-14T04:52:07.908Z,846.21
2018-12-14T04:53:07.280Z,846.21
2018-12-14T04:54:07.359Z,846.24
2018-12-14T04:55:07.276Z,846.22
2018-12-14T04:56:07.250Z,846.16
2018-12-14T04:57:07.248Z,846.21
2018-12-14T04:58:07.240Z,846.18
2018-12-14T04:59:07.258Z,846.20
2018-12-14T05:00:07.226Z,846.24
2018-12-14T05:01:07.202Z,846.25
2018-12-14T05:02:07.254Z,846.25
2018-12-14T05:03:07.179Z,846.32
2018-12-14T05:04:07.170Z,846.30
2018-12-14T05:05:07.164Z,846.31
2018-12-14T05:06:07.148Z,846.35
2018-12-14T05:07:07.225Z,846.35
2018-12-14T05:08:07.227Z,846.31
2018-12-14T05:09:07.118Z,846.35
2018-12-14T05:10:07.123Z,846.31
2018-12-14T05:11:07.182Z,846.34
2018-12-14T05:12:07.142Z,846.31
2018-12-14T05:13:07.083Z,846.30
2018-12-14T05:14:07.064Z,846.33
2018-12-14T05:15:07.073Z,846.32
2018-12-14T05:16:07.046Z,846.37
2018-12-14T05:17:07.047Z,846.31
2018-12-14T05:18:07.093Z,846.40
2018-12-14T05:19:07.052Z,846.39
2018-12-14T05:20:07.112Z,846.43
2018-12-14T05:21:07.019Z,846.39
2018-12-14T05:22:06.993Z,846.44
2018-12-14T05:23:07.019Z,846.41
2018-12-14T05:24:06.968Z,846.40
2018-12-14T05:25:06.972Z,846.38
2018-12-14T05:26:06.945Z,846.39
2018-12-14T05:27:06.937Z,846.41
2018-12-14T05:28:06.971Z,846.42
2018-12-14T05:29:06.926Z,846.42
2018-12-14T05:30:06.923Z,846.44
2018-12-14T05:31:06.908Z,846.48
2018-12-14T05:32:06.964Z,846.47
2018-12-14T05:33:06.920Z,846.49
2018-12-14T05:34:06.887Z,846.46
2018-12-14T05:35:06.874Z,846.48
2018-12-14T05:36:06.855Z,846.49
2018-12-14T05:37:06.842Z,846.50
2018-12-14T05:38:06.848Z,846.51
2018-12-14T05:39:06.849Z,846.48
2018-12-14T05:40:06.840Z,846.50
2018-12-14T05:41:06.792Z,846.51
2018-12-14T05:42:06.788Z,846.50
2018-12-14T05:43:06.826Z,846.54
2018-12-14T05:44:06.773Z,846.50
2018-12-14T05:45:06.779Z,846.52
2018-12-14T05:46:06.746Z,846.51
2018-12-14T05:47:06.727Z,846.51
2018-12-14T05:48:06.811Z,846.52
2018-12-14T05:49:06.714Z,846.52
2018-12-14T05:50:06.697Z,846.53
2018-12-14T05:51:06.688Z,846.60
2018-12-14T05:52:06.688Z,846.59
2018-12-14T05:53:06.734Z,846.55
2018-12-14T05:54:06.670Z,846.56
2018-12-14T05:55:06.664Z,846.58
2018-12-14T05:56:06.638Z,846.49
2018-12-14T05:57:06.630Z,846.53
2018-12-14T05:58:06.647Z,846.55
2018-12-14T05:59:06.649Z,846.53
2018-12-14T06:00:06.598Z,846.58
2018-12-14T06:01:06.596Z,846.59
2018-12-14T06:02:06.603Z,846.58
2018-12-14T06:03:06.568Z,846.60
2018-12-14T06:04:06.599Z,846.63
2018-12-14T06:05:06.626Z,846.63
2018-12-14T06:06:06.545Z,846.61
2018-12-14T06:07:06.538Z,846.61
2018-12-14T06:08:06.542Z,846.59
2018-12-14T06:09:06.502Z,846.62
2018-12-14T06:10:06.567Z,846.60
2018-12-14T06:11:06.492Z,846.60
2018-12-14T06:12:06.475Z,846.58
2018-12-14T06:13:09.145Z,846.65
2018-12-14T06:14:06.471Z,846.61
2018-12-14T06:15:06.492Z,846.59
2018-12-14T06:16:06.475Z,846.66
2018-12-14T06:17:06.469Z,846.63
2018-12-14T06:18:06.414Z,846.65
2018-12-14T06:19:06.403Z,846.69
2018-12-14T06:20:06.441Z,846.66
2018-12-14T06:21:06.401Z,846.67
2018-12-14T06:22:06.417Z,846.66
2018-12-14T06:23:06.428Z,846.71
2018-12-14T06:24:06.368Z,846.66
2018-12-14T06:25:06.339Z,846.65
2018-12-14T06:26:06.332Z,846.65
2018-12-14T06:27:06.375Z,846.69
2018-12-14T06:28:06.343Z,846.72
2018-12-14T06:29:06.294Z,846.68
2018-12-14T06:30:06.293Z,846.75
2018-12-14T06:31:06.294Z,846.76
2018-12-14T06:32:06.306Z,846.75
2018-12-14T06:33:06.305Z,846.81
2018-12-14T06:34:06.250Z,846.78
2018-12-14T06:35:06.243Z,846.82
2018-12-14T06:36:06.224Z,846.77
2018-12-14T06:37:06.265Z,846.79
2018-12-14T06:38:06.221Z,846.76
2018-12-14T06:39:06.231Z,846.75
2018-12-14T06:40:06.188Z,846.74
2018-12-14T06:41:06.177Z,846.72
2018-12-14T06:42:06.238Z,846.75
2018-12-14T06:43:06.179Z,846.72
2018-12-14T06:44:06.172Z,846.73
2018-12-14T06:45:06.146Z,846.76
2018-12-14T06:46:06.134Z,846.77
2018-12-14T06:47:06.170Z,846.77
2018-12-14T06:48:06.166Z,846.78
2018-12-14T06:49:06.106Z,846.82
2018-12-14T06:50:06.090Z,846.78
2018-12-14T06:51:06.100Z,846.77
2018-12-14T06:52:06.115Z,846.75
2018-12-14T06:53:06.058Z,846.79
2018-12-14T06:54:06.051Z,846.74
2018-12-14T06:55:06.073Z,846.76
2018-12-14T06:56:06.022Z,846.80
2018-12-14T06:57:06.014Z,846.80
2018-12-14T06:58:06.014Z,846.79
2018-12-14T06:59:06.043Z,846.80
2018-12-14T07:00:06.898Z,846.81
2018-12-14T07:01:05.972Z,846.85
2018-12-14T07:02:05.978Z,846.83
2018-12-14T07:03:05.961Z,846.86
2018-12-14T07:04:05.954Z,846.84
2018-12-14T07:05:06.007Z,846.86
2018-12-14T07:06:05.922Z,846.89
2018-12-14T07:07:05.930Z,846.88
2018-12-14T07:08:05.945Z,846.88
2018-12-14T07:09:05.891Z,846.92
2018-12-14T07:10:05.889Z,846.94
2018-12-14T07:11:05.929Z,846.91
2018-12-14T07:12:05.874Z,846.97
2018-12-14T07:13:05.873Z,846.93
2018-12-14T07:14:05.841Z,846.96
2018-12-14T07:15:05.839Z,846.95
2018-12-14T07:16:05.864Z,846.98
2018-12-14T07:17:05.819Z,847.02
2018-12-14T07:18:05.799Z,847.02
2018-12-14T07:19:05.781Z,847.03
2018-12-14T07:20:05.863Z,847.02
2018-12-14T07:21:05.774Z,847.04
2018-12-14T07:22:05.765Z,847.06
2018-12-14T07:23:05.744Z,847.10
2018-12-14T07:24:05.737Z,847.06
2018-12-14T07:25:38.780Z,847.09
2018-12-14T07:26:06.742Z,847.15
2018-12-14T07:27:05.723Z,847.10
2018-12-14T07:28:05.698Z,847.13
2018-12-14T07:29:05.685Z,847.14
2018-12-14T07:30:05.686Z,847.12
2018-12-14T07:31:05.734Z,847.13
2018-12-14T07:32:05.675Z,847.14
2018-12-14T07:33:05.675Z,847.17
2018-12-14T07:34:05.645Z,847.11
2018-12-14T07:35:05.632Z,847.16
2018-12-14T07:36:05.648Z,847.21
2018-12-14T07:37:05.844Z,847.19
2018-12-14T07:38:05.591Z,847.21
2018-12-14T07:39:05.583Z,847.21
2018-12-14T07:40:05.625Z,847.27
2018-12-14T07:41:05.567Z,847.24
2018-12-14T07:42:05.549Z,847.28
2018-12-14T07:43:05.537Z,847.24
2018-12-14T07:44:05.531Z,847.23
2018-12-14T07:45:05.549Z,847.25
2018-12-14T07:46:05.574Z,847.25
2018-12-14T07:47:11.470Z,847.22
2018-12-14T07:48:06.490Z,847.27
2018-12-14T07:49:05.479Z,847.25
2018-12-14T07:50:05.483Z,847.25
2018-12-14T07:51:05.494Z,847.25
2018-12-14T07:52:05.471Z,847.31
2018-12-14T07:53:09.194Z,847.31
2018-12-14T07:54:05.429Z,847.30
2018-12-14T07:55:05.417Z,847.25
2018-12-14T07:56:05.446Z,847.31
2018-12-14T07:57:05.403Z,847.27
2018-12-14T07:58:05.427Z,847.28
2018-12-14T07:59:05.407Z,847.31
2018-12-14T08:00:05.377Z,847.36
2018-12-14T08:01:05.358Z,847.34
2018-12-14T08:02:05.353Z,847.38
2018-12-14T08:03:05.397Z,847.36
2018-12-14T08:04:05.322Z,847.38
2018-12-14T08:05:05.345Z,847.44
2018-12-14T08:06:05.316Z,847.47
2018-12-14T08:07:05.297Z,847.48
2018-12-14T08:08:05.321Z,847.43
2018-12-14T08:09:05.347Z,847.45
2018-12-14T08:10:05.265Z,847.49
2018-12-14T08:11:05.261Z,847.44
2018-12-14T08:12:05.248Z,847.45
2018-12-14T08:13:05.231Z,847.46
2018-12-14T08:14:05.261Z,847.45
2018-12-14T08:15:11.109Z,847.43
2018-12-14T08:16:06.214Z,847.52
2018-12-14T08:17:05.195Z,847.48
2018-12-14T08:18:05.182Z,847.48
2018-12-14T08:19:06.375Z,847.45
2018-12-14T08:20:05.199Z,847.47
2018-12-14T08:21:05.175Z,847.44
2018-12-14T08:22:05.151Z,847.45
2018-12-14T08:23:05.151Z,847.47
2018-12-14T08:24:05.116Z,847.49
2018-12-14T08:25:05.147Z,847.48
2018-12-14T08:26:05.101Z,847.48
2018-12-14T08:27:05.089Z,847.48
2018-12-14T08:28:05.075Z,847.49
2018-12-14T08:29:05.076Z,847.50
2018-12-14T08:30:05.102Z,847.54
2018-12-14T08:31:05.055Z,847.49
2018-12-14T08:32:05.050Z,847.51
2018-12-14T08:33:05.028Z,847.53
2018-12-14T08:34:05.014Z,847.51
2018-12-14T08:35:05.043Z,847.53
2018-12-14T08:36:04.995Z,847.59
2018-12-14T08:37:05.009Z,847.57
2018-12-14T08:38:04.972Z,847.53
2018-12-14T08:39:04.968Z,847.51
2018-12-14T08:40:04.997Z,847.53
2018-12-14T08:41:04.983Z,847.52
2018-12-14T08:42:04.934Z,847.52
2018-12-14T08:43:04.936Z,847.56
2018-12-14T08:44:04.922Z,847.59
2018-12-14T08:45:04.944Z,847.59
2018-12-14T08:46:04.923Z,847.61
2018-12-14T08:47:04.894Z,847.62
2018-12-14T08:48:04.872Z,847.60
2018-12-14T08:49:04.862Z,847.62
2018-12-14T08:50:04.897Z,847.59
2018-12-14T08:51:04.928Z,847.64
2018-12-14T08:52:04.850Z,847.66
2018-12-14T08:53:04.827Z,847.72
2018-12-14T08:54:04.824Z,847.68
2018-12-14T08:55:04.805Z,847.70
2018-12-14T08:56:04.845Z,847.72
2018-12-14T08:57:04.796Z,847.71
2018-12-14T08:58:04.779Z,847.70
2018-12-14T08:59:04.773Z,847.73
2018-12-14T09:00:04.788Z,847.72
2018-12-14T09:01:04.778Z,847.78
2018-12-14T09:02:04.773Z,847.77
2018-12-14T09:03:04.714Z,847.77
2018-12-14T09:04:04.708Z,847.75
2018-12-14T09:05:04.704Z,847.78
2018-12-14T09:06:04.747Z,847.76
2018-12-14T09:07:04.702Z,847.78
2018-12-14T09:08:04.738Z,847.78
2018-12-14T09:09:04.679Z,847.79
2018-12-14T09:10:04.701Z,847.81
2018-12-14T09:11:04.682Z,847.83
2018-12-14T09:12:04.643Z,847.84
2018-12-14T09:13:04.647Z,847.83
2018-12-14T09:14:04.606Z,847.85
2018-12-14T09:15:04.596Z,847.86
2018-12-14T09:16:04.628Z,847.85
2018-12-14T09:17:04.616Z,847.84
2018-12-14T09:18:04.567Z,847.83
2018-12-14T09:19:04.563Z,847.81
2018-12-14T09:20:04.560Z,847.85
2018-12-14T09:21:04.562Z,847.86
2018-12-14T09:22:04.581Z,847.84
2018-12-14T09:23:04.528Z,847.85
2018-12-14T09:24:04.519Z,847.91
2018-12-14T09:25:04.506Z,847.87
2018-12-14T09:26:04.505Z,847.88
2018-12-14T09:27:04.509Z,847.90
2018-12-14T09:28:04.471Z,847.81
2018-12-14T09:29:04.486Z,847.85
2018-12-14T09:30:04.473Z,847.86
2018-12-14T09:31:04.437Z,847.88
2018-12-14T09:32:04.493Z,847.93
2018-12-14T09:33:04.417Z,847.93
2018-12-14T09:34:04.411Z,847.95
2018-12-14T09:35:04.412Z,847.98
2018-12-14T09:36:04.391Z,848.02
2018-12-14T09:37:04.427Z,848.03
2018-12-14T09:38:04.413Z,848.01
2018-12-14T09:39:04.364Z,848.02
2018-12-14T09:40:04.355Z,848.06
2018-12-14T09:41:04.379Z,848.09
2018-12-14T09:42:04.319Z,848.04
2018-12-14T09:43:04.326Z,848.03
2018-12-14T09:44:04.306Z,848.08
2018-12-14T09:45:04.295Z,848.12
2018-12-14T09:46:04.322Z,848.12
2018-12-14T09:47:04.284Z,848.06
2018-12-14T09:48:04.264Z,848.04
2018-12-14T09:49:04.270Z,848.04
2018-12-14T09:50:04.236Z,848.05
2018-12-14T09:51:04.277Z,848.10
2018-12-14T09:52:04.219Z,848.07
2018-12-14T09:53:04.259Z,848.09
2018-12-14T09:54:04.227Z,848.08
2018-12-14T09:55:04.181Z,848.03
2018-12-14T09:56:04.211Z,848.05
2018-12-14T09:57:04.175Z,847.99
2018-12-14T09:58:04.205Z,848.00
2018-12-14T09:59:04.174Z,848.00
2018-12-14T10:00:04.129Z,847.99
2018-12-14T10:01:04.119Z,847.99
2018-12-14T10:02:04.149Z,847.96
2018-12-14T10:03:04.134Z,847.96
2018-12-14T10:04:04.107Z,847.96
2018-12-14T10:05:04.100Z,847.97
2018-12-14T10:06:04.064Z,847.98
2018-12-14T10:07:04.074Z,847.97
2018-12-14T10:08:04.052Z,847.99
2018-12-14T10:09:04.045Z,847.95
2018-12-14T10:10:04.027Z,847.93
2018-12-14T10:11:04.012Z,847.90
2018-12-14T10:12:04.006Z,847.97
2018-12-14T10:13:04.066Z,847.99
2018-12-14T10:14:03.985Z,847.93
2018-12-14T10:15:03.995Z,847.95
2018-12-14T10:16:03.962Z,847.97
2018-12-14T10:17:03.991Z,848.02
2018-12-14T10:18:03.944Z,847.98
2018-12-14T10:19:03.931Z,848.00
2018-12-14T10:20:03.961Z,848.02
2018-12-14T10:21:03.928Z,848.01
2018-12-14T10:22:03.951Z,847.99
2018-12-14T10:23:03.886Z,847.97
2018-12-14T10:24:03.881Z,847.93
2018-12-14T10:25:03.863Z,847.96
2018-12-14T10:26:03.858Z,848.01
2018-12-14T10:27:03.897Z,848.03
2018-12-14T10:28:03.838Z,848.00
2018-12-14T10:29:03.823Z,848.02
2018-12-14T10:30:03.809Z,848.00
2018-12-14T10:31:03.798Z,847.96
2018-12-14T10:32:03.794Z,847.95
2018-12-14T10:33:03.845Z,847.91
2018-12-14T10:34:03.788Z,847.88
2018-12-14T10:35:03.763Z,847.94
2018-12-14T10:36:03.745Z,847.88
2018-12-14T10:37:03.782Z,847.89
2018-12-14T10:38:03.734Z,847.91
2018-12-14T10:39:03.733Z,847.94
2018-12-14T10:40:03.701Z,847.89
2018-12-14T10:41:03.699Z,847.91
2018-12-14T10:42:03.715Z,847.84
2018-12-14T10:43:03.675Z,847.86
2018-12-14T10:44:07.453Z,847.88
2018-12-14T10:45:03.677Z,847.83
2018-12-14T10:46:03.646Z,847.86
2018-12-14T10:47:03.655Z,847.85
2018-12-14T10:48:03.627Z,847.89
2018-12-14T10:49:03.610Z,847.87
2018-12-14T10:50:03.658Z,847.85
2018-12-14T10:51:03.599Z,847.88
2018-12-14T10:52:03.597Z,847.84
2018-12-14T10:53:04.642Z,847.90
2018-12-14T10:54:03.548Z,847.88
2018-12-14T10:55:03.580Z,847.84
2018-12-14T10:56:03.545Z,847.83
2018-12-14T10:57:03.513Z,847.82
2018-12-14T10:58:03.506Z,847.80
2018-12-14T10:59:03.555Z,847.88
2018-12-14T11:00:03.486Z,847.79
2018-12-14T11:01:03.470Z,847.79
2018-12-14T11:02:03.465Z,847.74
2018-12-14T11:03:03.476Z,847.81
2018-12-14T11:04:03.481Z,847.81
2018-12-14T11:05:03.436Z,847.82
2018-12-14T11:06:03.435Z,847.76
2018-12-14T11:07:03.408Z,847.77
2018-12-14T11:08:03.398Z,847.75
2018-12-14T11:09:03.421Z,847.78
2018-12-14T11:10:03.389Z,847.77
2018-12-14T11:11:03.366Z,847.80
2018-12-14T11:12:03.357Z,847.77
2018-12-14T11:13:03.372Z,847.82
2018-12-14T11:14:03.379Z,847.84
2018-12-14T11:15:03.329Z,847.81
2018-12-14T11:16:03.317Z,847.84
2018-12-14T11:17:03.355Z,847.84
2018-12-14T11:18:03.289Z,847.79
2018-12-14T11:19:03.282Z,847.88
2018-12-14T11:20:03.311Z,847.86
2018-12-14T11:21:03.258Z,847.79
2018-12-14T11:22:03.295Z,847.80
2018-12-14T11:23:03.242Z,847.79
2018-12-14T11:24:03.239Z,847.79
2018-12-14T11:25:03.225Z,847.72
2018-12-14T11:26:03.228Z,847.78
2018-12-14T11:27:03.237Z,847.73
2018-12-14T11:28:03.192Z,847.72
2018-12-14T11:29:03.171Z,847.74
2018-12-14T11:30:03.168Z,847.71
2018-12-14T11:31:03.157Z,847.69
2018-12-14T11:32:03.198Z,847.69
2018-12-14T11:33:03.133Z,847.70
2018-12-14T11:34:03.119Z,847.65
2018-12-14T11:35:03.110Z,847.69
2018-12-14T11:36:03.095Z,847.65
2018-12-14T11:37:03.126Z,847.69
2018-12-14T11:38:03.114Z,847.62
2018-12-14T11:39:04.292Z,847.63
2018-12-14T11:40:03.121Z,847.62
2018-12-14T11:41:03.070Z,847.60
2018-12-14T11:42:03.080Z,847.65
2018-12-14T11:43:03.025Z,847.59
2018-12-14T11:44:03.031Z,847.59
2018-12-14T11:45:03.005Z,847.59
2018-12-14T11:46:03.006Z,847.60
2018-12-14T11:47:03.015Z,847.54
2018-12-14T11:48:02.981Z,847.61
2018-12-14T11:49:02.984Z,847.60
2018-12-14T11:50:02.950Z,847.58
2018-12-14T11:51:02.934Z,847.61
2018-12-14T11:52:02.962Z,847.60
2018-12-14T11:53:02.919Z,847.60
2018-12-14T11:54:02.921Z,847.61
2018-12-14T11:55:02.895Z,847.65
2018-12-14T11:56:02.901Z,847.59
2018-12-14T11:57:02.928Z,847.62
2018-12-14T11:58:02.872Z,847.60
2018-12-14T11:59:02.855Z,847.59
2018-12-14T12:00:02.864Z,847.55
2018-12-14T12:01:02.845Z,847.60
2018-12-14T12:02:02.884Z,847.54
2018-12-14T12:03:02.842Z,847.54
2018-12-14T12:04:02.795Z,847.59
2018-12-14T12:05:02.818Z,847.55
2018-12-14T12:06:02.780Z,847.56
2018-12-14T12:07:02.807Z,847.54
2018-12-14T12:08:02.811Z,847.54
2018-12-14T12:09:02.747Z,847.56
2018-12-14T12:10:02.737Z,847.47
2018-12-14T12:11:02.731Z,847.49
2018-12-14T12:12:02.778Z,847.50
2018-12-14T12:13:02.726Z,847.46
2018-12-14T12:14:02.693Z,847.45
2018-12-14T12:15:02.688Z,847.49
2018-12-14T12:16:02.678Z,847.49
2018-12-14T12:17:02.705Z,847.48
2018-12-14T12:18:02.665Z,847.48
2018-12-14T12:19:02.679Z,847.45
2018-12-14T12:20:02.632Z,847.50
2018-12-14T12:21:02.620Z,847.46
2018-12-14T12:22:02.653Z,847.42
2018-12-14T12:23:02.614Z,847.50
2018-12-14T12:24:02.596Z,847.47
2018-12-14T12:25:02.631Z,847.45
2018-12-14T12:26:02.590Z,847.49
2018-12-14T12:27:02.568Z,847.46
2018-12-14T12:28:02.545Z,847.44